createdAt,value
2023-05-05T00:01:21.604Z,13.20
2023-05-05T00:03:53.537Z,13.20
2023-05-05T00:06:25.303Z,13.10
2023-05-05T00:08:57.084Z,13.10
2023-05-05T00:11:28.845Z,13.10
2023-05-05T00:14:01.052Z,13.10
2023-05-05T00:16:32.925Z,13.00
2023-05-05T00:19:05.222Z,13.00
2023-05-05T00:21:37.044Z,13.00
2023-05-05T00:24:10.132Z,13.00
2023-05-05T00:26:41.892Z,12.90
2023-05-05T00:29:13.689Z,12.90
2023-05-05T00:31:45.465Z,12.90
2023-05-05T00:34:17.502Z,12.90
2023-05-05T00:36:49.551Z,12.80
2023-05-05T00:39:21.284Z,12.80
2023-05-05T00:41:52.957Z,12.80
2023-05-05T00:44:41.803Z,12.80
2023-05-05T00:47:15.921Z,12.80
2023-05-05T00:49:47.693Z,12.80
2023-05-05T00:52:19.601Z,12.70
2023-05-05T00:54:51.444Z,12.70
2023-05-05T00:57:24.807Z,12.70
2023-05-05T00:59:58.808Z,12.60
2023-05-05T01:02:31.355Z,12.60
2023-05-05T01:05:04.208Z,12.60
2023-05-05T01:08:09.718Z,12.50
2023-05-05T01:10:51.031Z,12.50
2023-05-05T01:13:27.837Z,12.50
2023-05-05T01:16:29.045Z,12.40
2023-05-05T01:19:10.670Z,12.40
2023-05-05T01:21:53.518Z,12.30
2023-05-05T01:24:39.542Z,12.20
2023-05-05T01:27:34.024Z,12.20
2023-05-05T01:30:29.658Z,12.10
2023-05-05T01:33:06.541Z,12.10
2023-05-05T01:35:43.552Z,12.00
2023-05-05T01:38:16.737Z,12.00
2023-05-05T01:40:52.688Z,12.00
2023-05-05T01:43:29.412Z,12.00
2023-05-05T01:46:02.483Z,12.00
2023-05-05T01:48:34.754Z,12.00
2023-05-05T01:51:07.964Z,12.00
2023-05-05T01:53:40.503Z,12.00
2023-05-05T01:56:12.760Z,12.00
2023-05-05T01:58:46.598Z,12.10
2023-05-05T02:01:21.922Z,12.10
2023-05-05T02:03:56.877Z,12.10
2023-05-05T02:06:32.472Z,12.10
2023-05-05T02:09:04.957Z,12.10
2023-05-05T02:11:36.985Z,12.10
2023-05-05T02:14:10.259Z,12.20
2023-05-05T02:16:43.117Z,12.20
2023-05-05T02:19:16.074Z,12.20
2023-05-05T02:21:47.912Z,12.30
2023-05-05T02:24:19.796Z,12.20
2023-05-05T02:26:53.250Z,12.20
2023-05-05T02:29:31.320Z,12.20
2023-05-05T02:32:07.036Z,12.10
2023-05-05T02:34:42.622Z,12.10
2023-05-05T02:37:21.285Z,12.10
2023-05-05T02:40:01.948Z,12.00
2023-05-05T02:42:37.247Z,12.00
2023-05-05T02:45:12.827Z,12.00
2023-05-05T02:47:44.558Z,12.00
2023-05-05T02:50:16.341Z,12.00
2023-05-05T02:52:48.290Z,12.00
2023-05-05T02:55:20.199Z,12.10
2023-05-05T02:58:04.927Z,12.10
2023-05-05T03:00:42.664Z,12.20
2023-05-05T03:03:40.918Z,12.20
2023-05-05T03:06:19.041Z,12.20
2023-05-05T03:09:06.429Z,12.20
2023-05-05T03:11:47.750Z,12.20
2023-05-05T03:14:21.426Z,12.20
2023-05-05T03:16:56.602Z,12.20
2023-05-05T03:19:29.516Z,12.30
2023-05-05T03:22:03.931Z,12.30
2023-05-05T03:24:35.651Z,12.30
2023-05-05T03:27:07.386Z,12.30
2023-05-05T03:29:39.111Z,12.30
2023-05-05T03:32:10.925Z,12.20
2023-05-05T03:34:42.768Z,12.20
2023-05-05T03:37:14.538Z,12.20
2023-05-05T03:39:46.285Z,12.20
2023-05-05T03:42:17.966Z,12.20
2023-05-05T03:44:53.248Z,12.20
2023-05-05T03:47:25.051Z,12.20
2023-05-05T03:49:56.749Z,12.20
2023-05-05T03:52:28.399Z,12.20
2023-05-05T03:55:00.363Z,12.20
2023-05-05T03:57:32.963Z,12.20
2023-05-05T04:00:05.921Z,12.20
2023-05-05T04:02:38.085Z,12.30
2023-05-05T04:05:09.892Z,12.30
2023-05-05T04:07:41.583Z,12.40
2023-05-05T04:10:13.336Z,12.40
2023-05-05T04:12:45.102Z,12.50
2023-05-05T04:15:16.854Z,12.50
2023-05-05T04:17:48.634Z,12.60
2023-05-05T04:20:20.436Z,12.60
2023-05-05T04:22:52.715Z,12.70
2023-05-05T04:25:24.622Z,12.80
2023-05-05T04:27:56.423Z,12.80
2023-05-05T04:30:28.257Z,12.90
2023-05-05T04:33:00.067Z,12.90
2023-05-05T04:35:31.887Z,12.90
2023-05-05T04:38:03.668Z,13.00
2023-05-05T04:40:39.598Z,13.00
2023-05-05T04:43:11.261Z,13.10
2023-05-05T04:45:52.888Z,13.20
2023-05-05T04:48:24.597Z,13.20
2023-05-05T04:50:56.358Z,13.30
2023-05-05T04:53:28.023Z,13.30
2023-05-05T04:56:01.678Z,13.30
2023-05-05T04:58:33.445Z,13.40
2023-05-05T05:01:05.254Z,13.40
2023-05-05T05:03:37.046Z,13.40
2023-05-05T05:06:08.945Z,13.40
2023-05-05T05:08:40.973Z,13.40
2023-05-05T05:11:12.695Z,13.40
2023-05-05T05:13:44.391Z,13.40
2023-05-05T05:16:16.592Z,13.30
2023-05-05T05:18:48.306Z,13.30
2023-05-05T05:21:20.305Z,13.30
2023-05-05T05:23:52.121Z,13.30
2023-05-05T05:26:23.942Z,13.40
2023-05-05T05:28:55.676Z,13.40
2023-05-05T05:31:27.442Z,13.50
2023-05-05T05:33:59.224Z,13.50
2023-05-05T05:36:31.643Z,13.60
2023-05-05T05:39:03.421Z,13.70
2023-05-05T05:41:35.092Z,13.80
2023-05-05T05:44:06.775Z,13.90
2023-05-05T05:46:38.599Z,14.10
2023-05-05T05:49:10.359Z,14.20
2023-05-05T05:51:42.199Z,14.40
2023-05-05T05:54:13.855Z,14.50
2023-05-05T05:56:45.637Z,14.70
2023-05-05T05:59:17.957Z,14.80
2023-05-05T06:01:49.713Z,14.90
2023-05-05T06:04:21.527Z,15.10
2023-05-05T06:06:53.227Z,15.30
2023-05-05T06:09:25.242Z,15.40
2023-05-05T06:11:56.934Z,15.60
2023-05-05T06:14:28.642Z,15.60
2023-05-05T06:17:00.320Z,15.70
2023-05-05T06:19:32.073Z,15.80
2023-05-05T06:22:03.797Z,16.10
2023-05-05T06:24:35.559Z,16.40
2023-05-05T06:27:07.268Z,16.60
2023-05-05T06:29:39.025Z,16.80
2023-05-05T06:32:12.612Z,16.90
2023-05-05T06:34:46.969Z,16.90
2023-05-05T06:37:18.888Z,16.90
2023-05-05T06:39:50.748Z,16.90
2023-05-05T06:42:22.541Z,16.90
2023-05-05T06:44:54.228Z,17.00
2023-05-05T06:47:26.100Z,17.00
2023-05-05T06:49:57.864Z,17.00
2023-05-05T06:52:29.637Z,17.00
2023-05-05T06:55:01.516Z,17.00
2023-05-05T06:57:33.229Z,17.10
2023-05-05T07:00:07.368Z,17.10
2023-05-05T07:02:40.874Z,17.10
2023-05-05T07:05:12.630Z,17.10
2023-05-05T07:07:54.434Z,17.20
2023-05-05T07:10:27.651Z,17.30
2023-05-05T07:12:59.419Z,17.30
2023-05-05T07:15:31.377Z,17.40
2023-05-05T07:18:03.246Z,17.40
2023-05-05T07:20:35.158Z,17.40
2023-05-05T07:23:07.030Z,17.30
2023-05-05T07:25:39.026Z,17.20
2023-05-05T07:28:11.286Z,17.20
2023-05-05T07:30:43.136Z,17.10
2023-05-05T07:33:15.593Z,17.10
2023-05-05T07:35:47.268Z,17.00
2023-05-05T07:38:19.039Z,16.90
2023-05-05T07:40:50.826Z,16.80
2023-05-05T07:43:22.536Z,16.70
2023-05-05T07:45:54.583Z,16.60
2023-05-05T07:48:26.448Z,16.50
2023-05-05T07:50:58.278Z,16.40
2023-05-05T07:53:30.052Z,16.40
2023-05-05T07:56:01.899Z,16.30
2023-05-05T07:58:33.806Z,16.40
2023-05-05T08:01:06.925Z,16.40
2023-05-05T08:03:38.789Z,16.50
2023-05-05T08:06:10.826Z,16.40
2023-05-05T08:08:42.662Z,16.40
2023-05-05T08:11:15.376Z,16.30
2023-05-05T08:13:47.616Z,16.20
2023-05-05T08:16:19.514Z,16.20
2023-05-05T08:18:51.802Z,16.20
2023-05-05T08:21:23.544Z,16.20
2023-05-05T08:23:55.381Z,16.20
2023-05-05T08:26:27.090Z,16.30
2023-05-05T08:29:00.821Z,16.50
2023-05-05T08:31:34.181Z,16.60
2023-05-05T08:34:06.605Z,16.70
2023-05-05T08:36:38.326Z,16.80
2023-05-05T08:39:10.078Z,16.90
2023-05-05T08:41:41.979Z,16.90
2023-05-05T08:44:13.865Z,16.90
2023-05-05T08:46:46.138Z,16.90
2023-05-05T08:49:18.893Z,16.90
2023-05-05T08:51:53.906Z,17.10
2023-05-05T08:54:30.711Z,17.30
2023-05-05T08:57:04.499Z,17.40
2023-05-05T08:59:38.191Z,17.50
2023-05-05T09:02:11.671Z,17.70
2023-05-05T09:04:43.624Z,18.00
2023-05-05T09:07:15.462Z,18.20
2023-05-05T09:09:48.112Z,18.40
2023-05-05T09:12:21.762Z,18.50
2023-05-05T09:14:53.539Z,18.80
2023-05-05T09:17:26.187Z,18.90
2023-05-05T09:20:10.798Z,18.90
2023-05-05T09:22:45.368Z,19.10
2023-05-05T09:25:18.194Z,19.20
2023-05-05T09:27:50.041Z,19.10
2023-05-05T09:30:26.071Z,19.00
2023-05-05T09:32:57.867Z,19.80
2023-05-05T09:35:47.206Z,21.40
2023-05-05T09:38:20.375Z,22.80
2023-05-05T09:40:53.699Z,23.70
2023-05-05T09:43:25.568Z,23.90
2023-05-05T09:46:07.862Z,23.60
2023-05-05T09:48:39.762Z,24.20
2023-05-05T09:51:11.616Z,24.40
2023-05-05T09:53:43.713Z,24.80
2023-05-05T09:56:15.537Z,24.50
2023-05-05T09:58:47.473Z,23.70
2023-05-05T10:01:23.922Z,23.20
2023-05-05T10:03:56.174Z,22.80
2023-05-05T10:06:48.588Z,22.60
2023-05-05T10:09:20.719Z,22.30
2023-05-05T10:11:53.138Z,22.00
2023-05-05T10:14:26.843Z,21.50
2023-05-05T10:17:01.737Z,21.20
2023-05-05T10:19:35.810Z,21.20
2023-05-05T10:22:09.828Z,20.80
2023-05-05T10:24:54.617Z,20.80
2023-05-05T10:27:28.977Z,20.70
2023-05-05T10:30:04.751Z,20.40
2023-05-05T10:35:28.452Z,19.80
2023-05-05T10:38:01.388Z,19.60
2023-05-05T10:40:34.161Z,19.40
2023-05-05T10:43:07.518Z,19.30
2023-05-05T10:45:40.404Z,19.20
2023-05-05T10:48:18.822Z,19.20
2023-05-05T10:51:10.580Z,19.00
2023-05-05T10:54:03.010Z,19.10
2023-05-05T10:56:36.135Z,19.20
2023-05-05T10:59:36.156Z,19.20
2023-05-05T11:02:27.356Z,19.10
2023-05-05T11:05:10.617Z,19.00
2023-05-05T11:07:43.455Z,19.00
2023-05-05T11:10:17.105Z,19.00
2023-05-05T11:12:52.120Z,19.30
2023-05-05T11:15:30.342Z,19.50
2023-05-05T11:18:05.889Z,20.00
2023-05-05T11:20:43.438Z,20.50
2023-05-05T11:23:22.042Z,20.90
2023-05-05T11:25:57.770Z,21.50
2023-05-05T11:28:31.461Z,21.60
2023-05-05T11:31:03.238Z,21.70
2023-05-05T11:33:37.121Z,21.30
2023-05-05T11:36:11.538Z,21.10
2023-05-05T11:38:52.308Z,21.10
2023-05-05T11:41:33.383Z,21.20
2023-05-05T11:44:12.316Z,21.10
2023-05-05T11:46:53.176Z,21.50
2023-05-05T11:49:29.061Z,22.00
2023-05-05T11:52:03.530Z,22.20
2023-05-05T11:54:37.816Z,22.20
2023-05-05T11:57:10.123Z,21.80
2023-05-05T11:59:55.135Z,21.90
2023-05-05T12:02:29.542Z,21.90
2023-05-05T12:05:01.879Z,21.90
2023-05-05T12:07:33.803Z,22.00
2023-05-05T12:10:06.909Z,22.00
2023-05-05T12:12:40.221Z,21.90
2023-05-05T12:15:12.245Z,22.00
2023-05-05T12:17:46.198Z,22.00
2023-05-05T12:20:18.089Z,21.90
2023-05-05T12:22:49.942Z,21.60
2023-05-05T12:25:22.070Z,21.40
2023-05-05T12:27:53.886Z,21.10
2023-05-05T12:30:25.762Z,21.00
2023-05-05T12:33:08.259Z,20.90
2023-05-05T12:35:41.665Z,20.70
2023-05-05T12:38:16.239Z,20.70
2023-05-05T12:40:51.827Z,20.70
2023-05-05T12:43:25.083Z,20.80
2023-05-05T12:45:59.831Z,20.90
2023-05-05T12:48:31.814Z,21.20
2023-05-05T12:51:23.439Z,21.30
2023-05-05T12:54:09.496Z,21.60
2023-05-05T12:56:44.083Z,21.60
2023-05-05T12:59:22.136Z,21.50
2023-05-05T13:01:56.354Z,21.70
2023-05-05T13:04:28.656Z,21.90
2023-05-05T13:07:21.324Z,21.80
2023-05-05T13:10:10.486Z,21.90
2023-05-05T13:12:42.631Z,21.90
2023-05-05T13:15:14.413Z,21.90
2023-05-05T13:17:46.275Z,22.00
2023-05-05T13:20:18.051Z,22.00
2023-05-05T13:22:49.776Z,21.90
2023-05-05T13:25:21.447Z,22.00
2023-05-05T13:27:53.255Z,21.80
2023-05-05T13:30:24.916Z,21.80
2023-05-05T13:32:56.661Z,21.60
2023-05-05T13:35:28.415Z,21.50
2023-05-05T13:38:00.119Z,21.30
2023-05-05T13:40:31.837Z,21.40
2023-05-05T13:43:03.605Z,21.40
2023-05-05T13:45:35.372Z,21.50
2023-05-05T13:48:07.353Z,21.30
2023-05-05T13:50:39.177Z,21.10
2023-05-05T13:53:10.937Z,21.20
2023-05-05T13:55:43.331Z,21.30
2023-05-05T13:58:15.133Z,21.40
2023-05-05T14:00:46.924Z,21.30
2023-05-05T14:03:18.690Z,21.20
2023-05-05T14:05:50.900Z,21.20
2023-05-05T14:08:23.034Z,21.10
2023-05-05T14:10:54.887Z,21.10
2023-05-05T14:13:26.698Z,21.20
2023-05-05T14:15:58.466Z,21.10
2023-05-05T14:18:30.379Z,21.00
2023-05-05T14:21:02.076Z,21.00
2023-05-05T14:23:33.879Z,20.90
2023-05-05T14:26:05.623Z,20.80
2023-05-05T14:28:37.403Z,20.80
2023-05-05T14:31:09.249Z,20.60
2023-05-05T14:33:40.949Z,20.50
2023-05-05T14:36:14.110Z,20.50
2023-05-05T14:38:46.058Z,20.60
2023-05-05T14:41:17.866Z,20.60
2023-05-05T14:43:49.618Z,20.40
2023-05-05T14:46:21.455Z,20.30
2023-05-05T14:48:53.260Z,20.20
2023-05-05T14:51:25.275Z,20.10
2023-05-05T14:53:56.958Z,20.00
2023-05-05T14:56:28.787Z,20.00
2023-05-05T14:59:00.550Z,19.80
2023-05-05T15:01:32.384Z,19.70
2023-05-05T15:04:04.417Z,19.70
2023-05-05T15:06:36.418Z,19.60
2023-05-05T15:09:08.197Z,19.50
2023-05-05T15:11:41.308Z,19.40
2023-05-05T15:14:12.996Z,19.20
2023-05-05T15:16:46.663Z,19.10
2023-05-05T15:19:18.434Z,19.00
2023-05-05T15:21:53.255Z,18.90
2023-05-05T15:24:25.085Z,18.80
2023-05-05T15:26:56.791Z,18.60
2023-05-05T15:29:28.655Z,18.50
2023-05-05T15:32:00.709Z,18.40
2023-05-05T15:34:32.579Z,18.40
2023-05-05T15:37:04.373Z,18.20
2023-05-05T15:39:36.155Z,18.10
2023-05-05T15:42:07.988Z,18.10
2023-05-05T15:44:40.828Z,18.00
2023-05-05T15:47:12.601Z,17.90
2023-05-05T15:49:44.384Z,17.70
2023-05-05T15:52:16.142Z,17.40
2023-05-05T15:54:47.930Z,17.20
2023-05-05T15:57:19.743Z,17.10
2023-05-05T15:59:54.642Z,17.00
2023-05-05T16:02:26.427Z,16.80
2023-05-05T16:04:58.235Z,16.60
2023-05-05T16:07:29.940Z,16.50
2023-05-05T16:10:01.826Z,16.50
2023-05-05T16:12:33.567Z,16.40
2023-05-05T16:15:06.076Z,16.40
2023-05-05T16:17:38.062Z,16.30
2023-05-05T16:20:10.633Z,16.30
2023-05-05T16:22:42.434Z,16.20
2023-05-05T16:25:17.394Z,16.20
2023-05-05T16:27:49.246Z,16.20
2023-05-05T16:30:21.138Z,16.10
2023-05-05T16:32:54.373Z,16.10
2023-05-05T16:35:26.143Z,16.10
2023-05-05T16:37:57.937Z,16.10
2023-05-05T16:40:29.765Z,16.10
2023-05-05T16:43:01.516Z,16.00
2023-05-05T16:45:33.291Z,16.00
2023-05-05T16:48:08.225Z,15.90
2023-05-05T16:50:40.821Z,15.90
2023-05-05T16:53:12.618Z,15.90
2023-05-05T16:55:44.416Z,15.90
2023-05-05T16:58:16.191Z,15.80
2023-05-05T17:00:49.144Z,15.90
2023-05-05T17:03:22.528Z,15.90
2023-05-05T17:05:54.497Z,16.00
2023-05-05T17:08:26.390Z,16.10
2023-05-05T17:10:58.381Z,16.20
2023-05-05T17:13:30.593Z,16.30
2023-05-05T17:16:02.405Z,16.30
2023-05-05T17:18:34.249Z,16.40
2023-05-05T17:21:06.230Z,16.40
2023-05-05T17:23:37.886Z,16.30
2023-05-05T17:26:09.601Z,16.30
2023-05-05T17:28:41.491Z,16.30
2023-05-05T17:31:13.232Z,16.30
2023-05-05T17:33:44.978Z,16.30
2023-05-05T17:36:16.764Z,16.20
2023-05-05T17:38:48.453Z,16.20
2023-05-05T17:41:20.449Z,16.20
2023-05-05T17:43:52.805Z,16.10
2023-05-05T17:46:24.654Z,16.10
2023-05-05T17:48:56.444Z,16.10
2023-05-05T17:51:28.229Z,16.10
2023-05-05T17:53:59.939Z,16.10
2023-05-05T17:56:31.678Z,16.00
2023-05-05T17:59:03.474Z,16.00
2023-05-05T18:01:35.448Z,15.90
2023-05-05T18:04:07.283Z,15.80
2023-05-05T18:06:38.988Z,15.70
2023-05-05T18:09:11.256Z,15.70
2023-05-05T18:11:43.292Z,15.70
2023-05-05T18:14:15.041Z,15.60
2023-05-05T18:16:49.750Z,15.50
2023-05-05T18:19:23.138Z,15.40
2023-05-05T18:21:54.942Z,15.40
2023-05-05T18:24:27.538Z,15.30
2023-05-05T18:26:59.249Z,15.20
2023-05-05T18:29:31.029Z,15.10
2023-05-05T18:32:02.939Z,15.10
2023-05-05T18:34:34.871Z,15.00
2023-05-05T18:37:06.656Z,14.90
2023-05-05T18:39:38.358Z,14.90
2023-05-05T18:42:10.264Z,14.80
2023-05-05T18:44:41.964Z,14.70
2023-05-05T18:47:13.696Z,14.60
2023-05-05T18:49:45.449Z,14.50
2023-05-05T18:52:17.251Z,14.50
2023-05-05T18:54:48.914Z,14.40
2023-05-05T18:57:20.700Z,14.40
2023-05-05T18:59:52.485Z,14.30
2023-05-05T19:02:24.225Z,14.30
2023-05-05T19:04:56.136Z,14.30
2023-05-05T19:07:35.279Z,14.30
2023-05-05T19:10:08.412Z,14.30
2023-05-05T19:12:40.241Z,14.30
2023-05-05T19:15:13.175Z,14.30
2023-05-05T19:17:44.943Z,14.30
2023-05-05T19:20:16.904Z,14.30
2023-05-05T19:22:48.986Z,14.30
2023-05-05T19:25:20.732Z,14.30
2023-05-05T19:27:52.489Z,14.30
2023-05-05T19:30:24.287Z,14.30
2023-05-05T19:32:56.017Z,14.30
2023-05-05T19:35:28.824Z,14.30
2023-05-05T19:38:00.726Z,14.30
2023-05-05T19:40:32.457Z,14.40
2023-05-05T19:43:04.306Z,14.40
2023-05-05T19:45:36.053Z,14.40
2023-05-05T19:48:07.786Z,14.40
2023-05-05T19:50:39.555Z,14.50
2023-05-05T19:53:11.216Z,14.50
2023-05-05T19:55:42.934Z,14.50
2023-05-05T19:58:14.650Z,14.50
2023-05-05T20:00:46.426Z,14.50
2023-05-05T20:03:18.222Z,14.50
2023-05-05T20:05:49.952Z,14.50
2023-05-05T20:08:21.668Z,14.50
2023-05-05T20:10:53.404Z,14.40
2023-05-05T20:13:25.238Z,14.40
2023-05-05T20:15:57.065Z,14.40
2023-05-05T20:18:28.859Z,14.40
2023-05-05T20:21:02.418Z,14.30
2023-05-05T20:23:34.355Z,14.30
2023-05-05T20:26:06.406Z,14.30
2023-05-05T20:28:39.707Z,14.30
2023-05-05T20:31:14.083Z,14.30
2023-05-05T20:33:45.941Z,14.30
2023-05-05T20:36:18.357Z,14.30
2023-05-05T20:38:51.920Z,14.30
2023-05-05T20:41:23.752Z,14.30
2023-05-05T20:43:55.527Z,14.30
2023-05-05T20:46:27.415Z,14.20
2023-05-05T20:48:59.271Z,14.20
2023-05-05T20:51:34.227Z,14.10
2023-05-05T20:54:06.079Z,14.20
2023-05-05T20:56:37.793Z,14.20
2023-05-05T20:59:09.540Z,14.20
2023-05-05T21:01:41.472Z,14.20
2023-05-05T21:04:13.251Z,14.30
2023-05-05T21:06:45.006Z,14.30
2023-05-05T21:09:16.801Z,14.30
2023-05-05T21:11:48.882Z,14.20
2023-05-05T21:14:20.652Z,14.20
2023-05-05T21:16:52.422Z,14.20
2023-05-05T21:19:24.104Z,14.20
2023-05-05T21:21:58.982Z,14.30
2023-05-05T21:24:30.845Z,14.30
2023-05-05T21:27:02.519Z,14.30
2023-05-05T21:29:37.582Z,14.30
2023-05-05T21:32:11.560Z,14.30
2023-05-05T21:34:43.889Z,14.30
2023-05-05T21:37:15.718Z,14.20
2023-05-05T21:39:49.444Z,14.20
2023-05-05T21:42:21.251Z,14.20
2023-05-05T21:44:52.938Z,14.20
2023-05-05T21:47:24.736Z,14.20
2023-05-05T21:49:57.964Z,14.30
2023-05-05T21:52:29.646Z,14.30
2023-05-05T21:55:01.507Z,14.30
2023-05-05T21:57:33.425Z,14.30
2023-05-05T22:00:07.983Z,14.30
2023-05-05T22:02:39.961Z,14.20
2023-05-05T22:05:12.025Z,14.20
2023-05-05T22:07:43.784Z,14.10
2023-05-05T22:10:15.474Z,14.10
2023-05-05T22:12:48.095Z,14.10
2023-05-05T22:15:20.017Z,14.10
2023-05-05T22:17:51.878Z,14.10
2023-05-05T22:20:23.638Z,14.10
2023-05-05T22:22:55.695Z,14.10
2023-05-05T22:25:27.436Z,14.10
2023-05-05T22:27:59.112Z,14.10
2023-05-05T22:30:31.099Z,14.10
2023-05-05T22:33:02.896Z,14.10
2023-05-05T22:35:34.700Z,14.10
2023-05-05T22:38:07.039Z,14.10
2023-05-05T22:40:38.806Z,14.10
2023-05-05T22:43:10.665Z,14.00
2023-05-05T22:45:43.434Z,14.10
2023-05-05T22:48:15.155Z,14.10
2023-05-05T22:50:46.998Z,14.10
2023-05-05T22:53:18.782Z,14.10
2023-05-05T22:55:51.724Z,14.00
2023-05-05T22:58:23.445Z,14.00
2023-05-05T23:00:55.277Z,14.00
2023-05-05T23:03:27.086Z,14.00
2023-05-05T23:05:58.860Z,14.00
2023-05-05T23:08:30.558Z,13.90
2023-05-05T23:11:02.343Z,13.90
2023-05-05T23:13:34.066Z,13.90
2023-05-05T23:16:06.312Z,14.00
2023-05-05T23:18:38.772Z,14.00
2023-05-05T23:21:10.595Z,13.90
2023-05-05T23:23:42.338Z,13.90
2023-05-05T23:26:14.078Z,13.90
2023-05-05T23:28:46.055Z,13.90
2023-05-05T23:31:17.821Z,13.90
2023-05-05T23:33:49.504Z,13.80
2023-05-05T23:36:21.315Z,13.80
2023-05-05T23:38:53.065Z,13.70
2023-05-05T23:41:24.744Z,13.70
2023-05-05T23:43:56.921Z,13.70
2023-05-05T23:46:29.288Z,13.70
2023-05-05T23:49:01.052Z,13.60
2023-05-05T23:51:32.799Z,13.60
2023-05-05T23:54:04.566Z,13.50
2023-05-05T23:56:36.328Z,13.50
2023-05-05T23:59:08.126Z,13.50
